Time;durP1;ratioP1;P1;durP2;ratioP2;P2;SDS_P1;SDS_P2;PMS_P1;PMS_P2;Temp;Humidity;BMP_temperature;BMP_pressure;BME280_temperature;BME280_humidity;BME280_pressure;Samples;Min_cycle;Max_cycle;Signal;HPM_P1;HPM_P2
2023/07/08 00:01:13;;;;;;;8.52;5.32;;;14.40;99.90;;;;;;5032978;28;20076;-57
2023/07/08 00:03:39;;;;;;;5.50;4.90;;;14.30;99.90;;;;;;5026873;28;20560;-55
2023/07/08 00:06:07;;;;;;;7.90;5.25;;;14.20;99.90;;;;;;5031163;28;20040;-56
2023/07/08 00:08:33;;;;;;;7.82;5.50;;;14.20;99.90;;;;;;5036568;28;20441;-56
2023/07/08 00:10:59;;;;;;;8.93;5.75;;;14.20;99.90;;;;;;5023222;28;20108;-56
2023/07/08 00:13:24;;;;;;;5.30;4.30;;;14.20;99.90;;;;;;5021037;28;20022;-56
2023/07/08 00:15:50;;;;;;;5.50;5.00;;;14.10;99.90;;;;;;5018878;28;20041;-56
2023/07/08 00:18:17;;;;;;;4.70;4.30;;;14.00;99.90;;;;;;5017550;28;20026;-56
2023/07/08 00:20:48;;;;;;;8.40;5.18;;;13.90;99.90;;;;;;5022079;28;20018;-54
2023/07/08 00:23:14;;;;;;;6.20;4.68;;;13.80;99.90;;;;;;5019356;28;20067;-56
2023/07/08 00:25:40;;;;;;;6.32;4.75;;;13.80;99.90;;;;;;5020376;28;20092;-55
2023/07/08 00:28:10;;;;;;;6.70;5.93;;;13.70;99.90;;;;;;5020684;28;20033;-57
2023/07/08 00:30:35;;;;;;;7.20;5.25;;;13.70;99.90;;;;;;5021233;28;20074;-55
2023/07/08 00:33:01;;;;;;;5.88;4.95;;;13.70;99.90;;;;;;5020337;28;20022;-56
2023/07/08 00:35:37;;;;;;;6.13;5.53;;;13.70;99.90;;;;;;5018895;28;20473;-56
2023/07/08 00:38:24;;;;;;;6.22;5.30;;;13.80;99.90;;;;;;5018134;28;20075;-55
2023/07/08 00:41:02;;;;;;;10.90;5.35;;;13.70;99.90;;;;;;5019426;28;20029;-56
2023/07/08 00:43:50;;;;;;;5.45;4.95;;;13.60;99.90;;;;;;5020425;28;20018;-57
2023/07/08 00:46:27;;;;;;;10.27;5.10;;;13.50;99.90;;;;;;5021438;28;20030;-57
2023/07/08 00:49:14;;;;;;;8.07;5.70;;;13.50;99.90;;;;;;5020513;28;20146;-55
2023/07/08 00:51:40;;;;;;;6.35;5.75;;;13.40;99.90;;;;;;5019344;28;20049;-55
2023/07/08 00:54:10;;;;;;;6.18;5.07;;;13.20;99.90;;;;;;5018370;28;20099;-55
2023/07/08 00:56:44;;;;;;;6.05;5.45;;;13.10;99.90;;;;;;5019648;28;20041;-54
2023/07/08 00:59:33;;;;;;;13.88;5.90;;;13.00;99.90;;;;;;5019973;28;20669;-55
2023/07/08 01:02:03;;;;;;;7.20;4.70;;;13.00;99.90;;;;;;5023439;28;20041;-56
2023/07/08 01:04:34;;;;;;;5.85;5.25;;;12.90;99.90;;;;;;5037078;28;20033;-59
2023/07/08 01:07:03;;;;;;;6.22;5.43;;;12.90;99.90;;;;;;5024021;28;20029;-59
2023/07/08 01:09:36;;;;;;;7.72;5.82;;;12.90;99.90;;;;;;5030558;28;20029;-58
2023/07/08 01:12:07;;;;;;;5.65;5.15;;;12.90;99.90;;;;;;5046685;28;20033;-58
2023/07/08 01:14:35;;;;;;;6.35;5.75;;;12.90;99.90;;;;;;5021450;28;20025;-59
2023/07/08 01:17:01;;;;;;;6.95;5.28;;;12.80;99.90;;;;;;5037408;28;20055;-57
2023/07/08 01:19:34;;;;;;;5.63;5.10;;;12.70;99.90;;;;;;5020844;28;20021;-58
2023/07/08 01:22:04;;;;;;;5.63;5.13;;;12.70;99.90;;;;;;5019068;28;20033;-58
2023/07/08 01:24:32;;;;;;;5.57;5.07;;;12.60;99.90;;;;;;5015845;28;20026;-58
2023/07/08 01:26:59;;;;;;;6.13;5.53;;;12.60;99.90;;;;;;5023100;28;20119;-59
2023/07/08 01:29:25;;;;;;;7.45;5.68;;;12.60;99.90;;;;;;5035696;28;20092;-58
2023/07/08 01:31:51;;;;;;;12.30;5.65;;;12.60;99.90;;;;;;5019832;28;20746;-58
2023/07/08 01:34:18;;;;;;;6.47;5.93;;;12.60;99.90;;;;;;5034760;28;20028;-58
2023/07/08 01:36:56;;;;;;;6.53;5.70;;;12.60;99.90;;;;;;5026869;28;20482;-59
2023/07/08 01:39:23;;;;;;;17.35;5.93;;;12.70;99.90;;;;;;5025552;28;20136;-59
2023/07/08 01:41:49;;;;;;;6.93;5.72;;;12.70;99.90;;;;;;5029974;28;20553;-59
2023/07/08 01:44:28;;;;;;;6.97;5.90;;;12.60;99.90;;;;;;5021208;28;20057;-58
2023/07/08 01:46:57;;;;;;;10.18;5.65;;;12.60;99.90;;;;;;5037785;28;20021;-59
2023/07/08 01:49:24;;;;;;;5.70;5.10;;;12.60;99.90;;;;;;5019748;28;20033;-59
2023/07/08 01:51:50;;;;;;;6.28;5.70;;;12.60;99.90;;;;;;5030879;28;20038;-59
2023/07/08 01:54:16;;;;;;;6.30;5.70;;;12.60;99.90;;;;;;5028590;28;20029;-57
2023/07/08 01:56:42;;;;;;;6.60;6.00;;;12.50;99.90;;;;;;5023227;28;20040;-59
2023/07/08 01:59:07;;;;;;;6.85;5.65;;;12.50;99.90;;;;;;5041680;28;20035;-58
2023/07/08 02:01:33;;;;;;;7.50;5.75;;;12.50;99.90;;;;;;5024318;28;20041;-58
2023/07/08 02:03:59;;;;;;;5.85;5.20;;;12.40;99.90;;;;;;5031784;28;20568;-58
2023/07/08 02:06:24;;;;;;;6.50;5.55;;;12.40;99.90;;;;;;5028395;28;20033;-59
2023/07/08 02:08:50;;;;;;;7.28;6.18;;;12.30;99.90;;;;;;5022858;28;20021;-58
2023/07/08 02:11:16;;;;;;;6.97;6.10;;;12.30;99.90;;;;;;5038553;28;20028;-58
2023/07/08 02:13:42;;;;;;;6.22;5.70;;;12.10;99.90;;;;;;5017156;28;20108;-58
2023/07/08 02:16:08;;;;;;;8.88;6.22;;;12.00;99.90;;;;;;5035786;28;20461;-57
2023/07/08 02:18:33;;;;;;;6.13;5.35;;;11.90;99.90;;;;;;5024410;28;20034;-59
2023/07/08 02:20:59;;;;;;;8.05;5.53;;;11.80;99.90;;;;;;5025541;28;20034;-57
2023/07/08 02:23:25;;;;;;;6.93;5.95;;;11.80;99.90;;;;;;5034542;28;20118;-58
2023/07/08 02:25:55;;;;;;;10.20;5.75;;;11.80;99.90;;;;;;5031113;28;20049;-56
2023/07/08 02:28:22;;;;;;;7.28;6.63;;;11.90;99.90;;;;;;5036423;28;20080;-57
2023/07/08 02:30:47;;;;;;;7.30;6.68;;;11.90;99.90;;;;;;5022835;28;20037;-58
2023/07/08 02:33:14;;;;;;;6.60;6.00;;;12.00;99.90;;;;;;5029160;28;20025;-58
2023/07/08 02:35:40;;;;;;;6.28;5.45;;;12.10;99.90;;;;;;5033807;28;20026;-58
2023/07/08 02:38:06;;;;;;;5.82;5.38;;;12.20;99.90;;;;;;5018344;28;20033;-57
2023/07/08 02:40:31;;;;;;;7.45;6.68;;;12.30;99.90;;;;;;5038614;28;20040;-58
2023/07/08 02:42:57;;;;;;;7.15;6.32;;;12.30;99.90;;;;;;5021404;28;20482;-57
2023/07/08 02:45:22;;;;;;;7.32;6.57;;;12.30;99.90;;;;;;5025881;28;20117;-58
2023/07/08 02:47:48;;;;;;;6.95;6.25;;;12.30;99.90;;;;;;5032036;28;20156;-58
2023/07/08 02:50:14;;;;;;;7.25;6.53;;;12.30;99.90;;;;;;5016599;28;20030;-58
2023/07/08 02:52:39;;;;;;;7.00;6.35;;;12.30;99.90;;;;;;5036740;28;20041;-58
2023/07/08 02:55:06;;;;;;;7.68;6.93;;;12.30;99.90;;;;;;5021355;28;20080;-58
2023/07/08 02:57:31;;;;;;;7.03;6.32;;;12.30;99.90;;;;;;5027479;28;20042;-57
2023/07/08 02:59:57;;;;;;;6.90;6.30;;;12.30;99.90;;;;;;5030641;28;20797;-59
2023/07/08 03:02:23;;;;;;;7.55;6.07;;;12.30;99.90;;;;;;5019547;28;20021;-58
2023/07/08 03:04:49;;;;;;;6.93;6.22;;;12.30;99.90;;;;;;5035431;28;20104;-59
2023/07/08 03:07:16;;;;;;;7.10;6.47;;;12.20;99.90;;;;;;5019834;28;20036;-57
2023/07/08 03:09:42;;;;;;;7.40;6.70;;;12.30;99.90;;;;;;5031003;28;20064;-59
2023/07/08 03:12:09;;;;;;;6.90;6.20;;;12.20;99.90;;;;;;5029789;28;20072;-58
2023/07/08 03:14:36;;;;;;;8.07;7.13;;;12.20;99.90;;;;;;5020972;28;20025;-56
2023/07/08 03:17:01;;;;;;;7.00;6.05;;;12.10;99.90;;;;;;5039404;28;20061;-58
2023/07/08 03:19:27;;;;;;;6.78;6.18;;;12.00;99.90;;;;;;5017664;28;20129;-58
2023/07/08 03:21:53;;;;;;;6.55;6.03;;;11.90;99.90;;;;;;5031943;28;20022;-58
2023/07/08 03:24:18;;;;;;;6.03;5.47;;;11.70;99.90;;;;;;5024229;28;20026;-59
2023/07/08 03:26:45;;;;;;;6.93;6.32;;;11.70;99.90;;;;;;5018493;28;20044;-58
2023/07/08 03:29:18;;;;;;;8.38;6.82;;;11.60;99.90;;;;;;5039559;28;20047;-58
2023/07/08 03:31:44;;;;;;;7.15;6.45;;;11.60;99.90;;;;;;5034678;28;20042;-59
2023/07/08 03:34:12;;;;;;;8.10;6.82;;;11.60;99.90;;;;;;5020662;28;20025;-58
2023/07/08 03:36:49;;;;;;;7.43;6.72;;;11.60;99.90;;;;;;5029286;28;20041;-59
2023/07/08 03:39:20;;;;;;;6.72;6.13;;;11.60;99.90;;;;;;5027114;28;20026;-58
2023/07/08 03:41:45;;;;;;;10.50;7.00;;;11.60;99.90;;;;;;5022220;28;20170;-59
2023/07/08 03:44:12;;;;;;;7.95;7.15;;;11.60;99.90;;;;;;5039920;28;20116;-58
2023/07/08 03:46:39;;;;;;;7.90;7.07;;;11.60;99.90;;;;;;5018680;28;20185;-59
2023/07/08 03:49:05;;;;;;;7.93;7.00;;;11.60;99.90;;;;;;5015415;28;20033;-57
2023/07/08 03:51:35;;;;;;;7.82;7.03;;;11.60;99.90;;;;;;5017498;28;20153;-59
2023/07/08 03:54:01;;;;;;;6.78;6.22;;;11.60;99.90;;;;;;5018401;28;20034;-57
2023/07/08 03:56:26;;;;;;;7.07;6.47;;;11.60;99.90;;;;;;5019640;28;20029;-59
2023/07/08 03:58:52;;;;;;;6.65;6.05;;;11.70;99.90;;;;;;5035719;28;20412;-59
2023/07/08 04:01:23;;;;;;;8.90;6.50;;;11.70;99.90;;;;;;5018474;28;20030;-58
2023/07/08 04:03:51;;;;;;;7.45;6.60;;;11.70;99.90;;;;;;5031737;28;20021;-59
2023/07/08 04:06:17;;;;;;;6.90;5.97;;;11.80;99.90;;;;;;5028849;28;20029;-58
2023/07/08 04:08:43;;;;;;;8.13;7.32;;;11.80;99.90;;;;;;5015050;28;20128;-58
2023/07/08 04:11:12;;;;;;;6.85;6.25;;;11.80;99.90;;;;;;5019346;28;20052;-58
2023/07/08 04:13:38;;;;;;;6.85;6.25;;;11.90;99.90;;;;;;5016320;28;20402;-58
2023/07/08 04:16:05;;;;;;;6.75;6.15;;;11.90;99.90;;;;;;5030177;28;20033;-58
2023/07/08 04:18:31;;;;;;;6.85;6.20;;;11.90;99.90;;;;;;5029279;28;20038;-58
2023/07/08 04:20:57;;;;;;;7.18;6.32;;;12.00;99.90;;;;;;5022669;28;20036;-58
2023/07/08 04:23:23;;;;;;;11.88;7.47;;;12.00;99.90;;;;;;5033898;28;20009;-59
2023/07/08 04:25:50;;;;;;;8.85;7.07;;;12.00;99.90;;;;;;5017501;28;20026;-58
2023/07/08 04:28:16;;;;;;;7.22;6.55;;;12.10;99.90;;;;;;5033764;28;20029;-58
2023/07/08 04:30:43;;;;;;;9.73;6.82;;;12.20;99.90;;;;;;5019309;28;20687;-58
2023/07/08 04:33:13;;;;;;;9.38;7.18;;;12.20;99.90;;;;;;5024407;28;20060;-57
2023/07/08 04:35:41;;;;;;;7.28;6.68;;;12.30;99.90;;;;;;5029112;28;20038;-57
2023/07/08 04:38:27;;;;;;;8.05;7.20;;;12.40;99.90;;;;;;5021775;28;20087;-59
2023/07/08 04:40:53;;;;;;;7.93;7.22;;;12.40;99.90;;;;;;5044343;28;20036;-58
2023/07/08 04:43:21;;;;;;;7.85;7.15;;;12.50;99.90;;;;;;5040340;28;20504;-59
2023/07/08 04:45:52;;;;;;;8.55;7.72;;;12.50;99.90;;;;;;5040191;28;20087;-58
2023/07/08 04:48:20;;;;;;;7.80;7.07;;;12.60;99.90;;;;;;5037736;28;20072;-59
2023/07/08 04:50:48;;;;;;;7.70;7.10;;;12.70;99.90;;;;;;5039960;28;20108;-58
2023/07/08 04:53:14;;;;;;;8.57;7.03;;;12.70;99.90;;;;;;5039700;28;20063;-59
2023/07/08 04:56:00;;;;;;;8.32;7.40;;;12.80;99.90;;;;;;5040998;28;20128;-56
2023/07/08 04:58:26;;;;;;;7.68;6.97;;;12.80;99.90;;;;;;5040530;28;20072;-58
2023/07/08 05:00:51;;;;;;;8.20;7.35;;;12.90;99.90;;;;;;5036822;28;20060;-58
2023/07/08 05:03:17;;;;;;;8.65;7.53;;;12.90;99.90;;;;;;5037227;28;20079;-58
2023/07/08 05:05:43;;;;;;;7.90;7.25;;;13.00;99.90;;;;;;5039483;28;20029;-58
2023/07/08 05:08:09;;;;;;;8.32;7.63;;;13.10;99.90;;;;;;5041374;28;20094;-58
2023/07/08 05:10:34;;;;;;;8.13;7.43;;;13.10;99.90;;;;;;5040075;28;20505;-58
2023/07/08 05:13:00;;;;;;;7.50;6.85;;;13.10;99.90;;;;;;5036752;28;20755;-58
2023/07/08 05:15:26;;;;;;;7.85;7.20;;;13.20;99.90;;;;;;5039088;28;20117;-58
2023/07/08 05:17:51;;;;;;;8.20;7.47;;;13.30;99.90;;;;;;5041187;28;20037;-58
2023/07/08 05:20:18;;;;;;;8.20;7.38;;;13.30;99.90;;;;;;5039293;28;20047;-58
2023/07/08 05:22:45;;;;;;;8.40;7.70;;;13.40;99.90;;;;;;5038939;28;20021;-59
2023/07/08 05:25:12;;;;;;;8.57;7.88;;;13.50;99.90;;;;;;5038784;28;20032;-59
2023/07/08 05:27:37;;;;;;;11.00;6.70;;;13.70;99.90;;;;;;5039886;28;20051;-59
2023/07/08 05:30:05;;;;;;;8.02;7.20;;;13.80;99.90;;;;;;5038778;28;20498;-59
2023/07/08 05:32:31;;;;;;;9.43;7.72;;;13.90;99.90;;;;;;5042381;28;20035;-59
2023/07/08 05:34:56;;;;;;;8.43;7.68;;;14.00;99.90;;;;;;5040282;28;20037;-58
2023/07/08 05:37:25;;;;;;;8.20;7.50;;;14.10;99.90;;;;;;5038784;28;20397;-58
2023/07/08 05:39:51;;;;;;;9.13;8.23;;;14.20;99.90;;;;;;5042733;28;20049;-59
2023/07/08 05:42:18;;;;;;;8.95;7.25;;;14.30;99.90;;;;;;5043561;28;20072;-59
2023/07/08 05:44:43;;;;;;;8.32;7.63;;;14.40;99.90;;;;;;5039431;28;20559;-59
2023/07/08 05:47:09;;;;;;;8.18;6.88;;;14.60;99.90;;;;;;5038511;28;20037;-58
2023/07/08 05:49:35;;;;;;;8.68;6.47;;;14.70;99.90;;;;;;5036138;28;20026;-59
2023/07/08 05:52:05;;;;;;;6.93;6.43;;;14.90;99.90;;;;;;5039542;28;20049;-59
2023/07/08 05:54:31;;;;;;;7.72;6.97;;;15.00;99.90;;;;;;5037148;28;20037;-58
2023/07/08 05:56:56;;;;;;;9.32;6.18;;;15.20;99.90;;;;;;5039119;28;20555;-59
2023/07/08 05:59:22;;;;;;;7.95;6.43;;;15.40;99.90;;;;;;5038991;28;20049;-58
2023/07/08 06:01:48;;;;;;;6.55;5.95;;;15.50;99.90;;;;;;5038933;28;20017;-59
2023/07/08 06:04:13;;;;;;;6.75;6.07;;;15.60;99.90;;;;;;5038924;28;20037;-58
2023/07/08 06:06:39;;;;;;;7.07;6.28;;;15.80;99.90;;;;;;5035177;28;20057;-58
2023/07/08 06:09:04;;;;;;;9.52;6.13;;;16.00;99.90;;;;;;5039945;28;20028;-56
2023/07/08 06:11:30;;;;;;;6.18;5.63;;;16.10;99.90;;;;;;5037434;28;20090;-56
2023/07/08 06:13:56;;;;;;;6.85;6.25;;;16.20;99.90;;;;;;5039971;28;20021;-55
2023/07/08 06:16:22;;;;;;;5.75;5.25;;;16.40;99.90;;;;;;5042219;28;20183;-55
2023/07/08 06:18:47;;;;;;;7.18;4.95;;;16.50;99.90;;;;;;5042297;28;20104;-56
2023/07/08 06:21:13;;;;;;;6.88;4.53;;;16.70;99.90;;;;;;5040085;28;20074;-55
2023/07/08 06:23:39;;;;;;;5.80;5.30;;;16.90;99.90;;;;;;5039535;28;20029;-57
2023/07/08 06:26:04;;;;;;;5.32;4.93;;;17.00;99.90;;;;;;5041551;28;20490;-56
2023/07/08 06:28:30;;;;;;;6.03;5.43;;;17.20;99.90;;;;;;5041109;28;20072;-56
2023/07/08 06:30:55;;;;;;;6.32;5.18;;;17.40;99.90;;;;;;5039028;28;20041;-55
2023/07/08 06:33:21;;;;;;;8.18;5.10;;;17.60;99.90;;;;;;5037435;28;20033;-55
2023/07/08 06:35:47;;;;;;;6.45;4.95;;;17.70;99.90;;;;;;5034752;28;20029;-56
2023/07/08 06:38:12;;;;;;;5.20;4.80;;;17.80;99.90;;;;;;5036045;28;20037;-56
2023/07/08 06:40:38;;;;;;;5.78;5.15;;;18.00;99.90;;;;;;5039960;28;20029;-54
2023/07/08 06:43:04;;;;;;;6.45;5.40;;;18.10;99.90;;;;;;5044510;28;20106;-56
2023/07/08 06:45:29;;;;;;;5.68;4.78;;;18.20;99.90;;;;;;5037959;28;20172;-55
2023/07/08 06:47:55;;;;;;;4.97;4.57;;;18.30;99.90;;;;;;5037788;28;20032;-55
2023/07/08 06:50:20;;;;;;;6.15;4.43;;;18.50;99.90;;;;;;5034755;28;20029;-54
2023/07/08 06:52:46;;;;;;;5.43;4.93;;;18.60;99.90;;;;;;5037642;28;20048;-56
2023/07/08 06:55:12;;;;;;;5.60;4.53;;;18.70;99.90;;;;;;5039260;28;20029;-56
2023/07/08 06:57:38;;;;;;;5.60;5.10;;;18.90;99.90;;;;;;5036960;28;20033;-55
2023/07/08 07:00:07;;;;;;;6.95;5.05;;;19.00;99.90;;;;;;5035201;28;20516;-55
2023/07/08 07:02:33;;;;;;;4.80;4.40;;;19.20;99.90;;;;;;5039839;28;20041;-57
2023/07/08 07:04:58;;;;;;;6.07;5.00;;;19.30;99.90;;;;;;5037633;28;20025;-57
2023/07/08 07:07:24;;;;;;;6.78;4.97;;;19.40;99.90;;;;;;5039034;28;20547;-57
2023/07/08 07:09:49;;;;;;;5.25;4.32;;;19.50;99.90;;;;;;5040216;28;20036;-56
2023/07/08 07:12:15;;;;;;;4.55;4.15;;;19.70;99.90;;;;;;5037502;28;20603;-57
2023/07/08 07:14:41;;;;;;;5.72;4.95;;;19.90;99.90;;;;;;5045303;28;20420;-56
2023/07/08 07:17:06;;;;;;;5.70;5.20;;;20.00;99.90;;;;;;5038018;28;20024;-56
2023/07/08 07:19:32;;;;;;;5.50;4.95;;;20.10;99.90;;;;;;5038421;28;20032;-57
2023/07/08 07:21:57;;;;;;;5.43;4.93;;;20.30;99.90;;;;;;5035422;28;20489;-56
2023/07/08 07:24:23;;;;;;;7.53;4.25;;;20.40;99.90;;;;;;5040108;28;20032;-56
2023/07/08 07:26:49;;;;;;;5.28;4.88;;;20.50;99.90;;;;;;5034675;28;20025;-57
2023/07/08 07:29:17;;;;;;;7.47;4.88;;;20.70;99.90;;;;;;5031930;28;20048;-56
2023/07/08 07:31:43;;;;;;;6.13;4.78;;;20.80;99.90;;;;;;5037907;28;20036;-57
2023/07/08 07:34:10;;;;;;;4.75;4.35;;;21.00;99.90;;;;;;5043653;28;20040;-56
2023/07/08 07:36:36;;;;;;;4.53;4.05;;;21.20;99.90;;;;;;5037157;28;20094;-57
2023/07/08 07:39:01;;;;;;;4.22;3.83;;;21.60;99.90;;;;;;5034081;28;20468;-58
2023/07/08 07:41:27;;;;;;;6.13;3.97;;;21.90;99.90;;;;;;5037914;28;20028;-57
2023/07/08 07:43:52;;;;;;;5.45;4.22;;;22.10;99.90;;;;;;5036507;28;20108;-57
2023/07/08 07:46:18;;;;;;;4.50;4.10;;;22.30;99.80;;;;;;5037181;28;20025;-57
2023/07/08 07:48:44;;;;;;;4.78;4.38;;;22.40;97.50;;;;;;5034146;28;20734;-57
2023/07/08 07:51:10;;;;;;;4.13;3.83;;;22.60;96.20;;;;;;5035767;28;20037;-57
2023/07/08 07:53:37;;;;;;;5.22;4.22;;;22.70;95.50;;;;;;5036056;28;20041;-57
2023/07/08 07:56:04;;;;;;;4.07;3.78;;;22.90;94.90;;;;;;5037037;28;20037;-57
2023/07/08 07:58:30;;;;;;;4.25;3.80;;;23.10;92.10;;;;;;5039382;28;20033;-58
2023/07/08 08:00:56;;;;;;;4.82;3.53;;;23.40;91.20;;;;;;5037039;28;20715;-57
2023/07/08 08:03:22;;;;;;;4.43;4.03;;;23.60;90.90;;;;;;5039244;28;20127;-58
2023/07/08 08:05:48;;;;;;;4.43;4.03;;;23.80;90.10;;;;;;5031479;28;20029;-58
2023/07/08 08:08:15;;;;;;;4.40;4.00;;;24.10;85.90;;;;;;5038868;28;20028;-58
2023/07/08 08:10:41;;;;;;;4.35;3.95;;;24.20;87.20;;;;;;5035772;28;20750;-57
2023/07/08 08:13:08;;;;;;;4.45;4.05;;;24.40;86.50;;;;;;5036509;28;20044;-58
2023/07/08 08:15:34;;;;;;;4.63;3.75;;;24.60;87.30;;;;;;5041086;28;20412;-55
2023/07/08 08:18:00;;;;;;;4.57;4.15;;;24.90;77.00;;;;;;5039979;28;20031;-59
2023/07/08 08:20:26;;;;;;;3.83;3.47;;;25.20;81.60;;;;;;5039915;28;20026;-58
2023/07/08 08:22:52;;;;;;;4.97;3.65;;;25.50;78.40;;;;;;5039623;28;20028;-57
2023/07/08 08:25:20;;;;;;;3.65;3.30;;;25.70;75.00;;;;;;5039183;28;20108;-57
2023/07/08 08:27:45;;;;;;;4.22;3.83;;;25.80;78.80;;;;;;5039260;28;20029;-58
2023/07/08 08:30:12;;;;;;;4.13;3.72;;;26.10;70.40;;;;;;5038293;28;20053;-58
2023/07/08 08:32:37;;;;;;;3.75;3.45;;;26.20;69.30;;;;;;5040415;28;20037;-56
2023/07/08 08:35:04;;;;;;;3.60;3.30;;;26.20;70.30;;;;;;5038238;28;20046;-55
2023/07/08 08:37:30;;;;;;;3.67;3.38;;;26.30;69.80;;;;;;5037533;28;20627;-55
2023/07/08 08:39:55;;;;;;;3.50;3.20;;;26.40;64.60;;;;;;5040559;28;20059;-57
2023/07/08 08:42:43;;;;;;;7.90;3.17;;;26.50;66.50;;;;;;5039139;28;20017;-56
2023/07/08 08:45:14;;;;;;;4.30;3.90;;;26.70;64.00;;;;;;5041359;28;20040;-58
2023/07/08 08:47:47;;;;;;;3.38;3.08;;;26.90;60.20;;;;;;5043106;28;20425;-56
2023/07/08 08:50:33;;;;;;;4.65;3.13;;;27.00;61.40;;;;;;5038795;28;20493;-55
2023/07/08 08:53:03;;;;;;;3.30;3.00;;;27.10;59.90;;;;;;5038810;28;20033;-56
2023/07/08 08:55:29;;;;;;;3.88;3.47;;;27.30;59.20;;;;;;5038405;28;20040;-56
2023/07/08 08:58:11;;;;;;;5.43;3.53;;;27.40;58.30;;;;;;5042288;28;20066;-55
2023/07/08 09:00:50;;;;;;;4.05;3.08;;;27.50;59.30;;;;;;5039458;28;20033;-57
2023/07/08 09:03:21;;;;;;;3.55;2.83;;;27.70;58.80;;;;;;5047213;28;20124;-56
2023/07/08 09:05:47;;;;;;;;;;;27.90;57.20;;;;;;5043508;28;20064;-57
2023/07/08 09:08:27;;;;;;;3.92;3.15;;;27.90;56.10;;;;;;5038484;28;19978;-57
2023/07/08 09:11:10;;;;;;;3.95;3.03;;;27.90;55.10;;;;;;5038882;28;20100;-57
2023/07/08 09:13:37;;;;;;;3.28;2.70;;;28.10;55.30;;;;;;5040265;28;20116;-57
2023/07/08 09:16:13;;;;;;;3.80;3.17;;;28.20;52.40;;;;;;5037638;28;20021;-57
2023/07/08 09:18:48;;;;;;;3.53;3.17;;;28.30;57.10;;;;;;5041728;28;20032;-55
2023/07/08 09:21:24;;;;;;;3.20;2.90;;;28.40;52.00;;;;;;5038944;28;20060;-56
2023/07/08 09:23:53;;;;;;;3.92;3.00;;;28.50;54.30;;;;;;5038632;28;20432;-58
2023/07/08 09:26:22;;;;;;;4.15;3.17;;;28.70;54.00;;;;;;5041700;28;20029;-56
2023/07/08 09:28:48;;;;;;;3.30;3.00;;;28.90;50.30;;;;;;5039359;28;20048;-57
2023/07/08 09:31:27;;;;;;;4.93;3.42;;;28.90;49.30;;;;;;5036888;28;20854;-56
2023/07/08 09:34:23;;;;;;;3.72;3.15;;;29.00;50.60;;;;;;5040063;28;20029;-56
2023/07/08 09:36:50;;;;;;;3.33;3.03;;;29.10;50.10;;;;;;5040268;28;20425;-57
2023/07/08 09:39:19;;;;;;;4.20;2.85;;;29.30;51.10;;;;;;5038509;28;20026;-55
2023/07/08 09:41:48;;;;;;;5.43;2.95;;;29.40;52.00;;;;;;5040095;28;20029;-58
2023/07/08 09:44:16;;;;;;;4.03;3.10;;;29.70;49.70;;;;;;5041518;28;20034;-57
2023/07/08 09:46:42;;;;;;;3.20;2.90;;;29.80;46.80;;;;;;5038116;28;20417;-57
2023/07/08 09:49:24;;;;;;;4.05;2.92;;;29.80;48.20;;;;;;5036532;28;20047;-58
2023/07/08 09:51:51;;;;;;;3.20;2.92;;;29.90;47.70;;;;;;5040392;28;20069;-56
2023/07/08 09:54:21;;;;;;;5.05;3.03;;;30.00;49.50;;;;;;5037067;28;20033;-56
2023/07/08 09:57:11;;;;;;;;;;;30.20;49.00;;;;;;5040438;28;20037;-55
2023/07/08 09:59:46;;;;;;;3.30;2.90;;;30.40;46.70;;;;;;5029557;28;20445;-55
2023/07/08 10:02:35;;;;;;;4.22;2.58;;;30.50;47.30;;;;;;5040018;28;20028;-56
2023/07/08 10:05:13;;;;;;;4.55;3.17;;;30.70;46.90;;;;;;5039629;28;20037;-57
2023/07/08 10:07:38;;;;;;;3.13;2.83;;;30.80;47.40;;;;;;5038810;28;20120;-56
2023/07/08 10:10:10;;;;;;;5.20;3.17;;;30.90;47.70;;;;;;5024755;28;20132;-58
2023/07/08 10:12:38;;;;;;;3.80;2.97;;;30.80;45.10;;;;;;5027061;28;20033;-56
2023/07/08 10:15:37;;;;;;;3.78;2.92;;;30.80;46.00;;;;;;5029651;28;20113;-57
2023/07/08 10:18:02;;;;;;;4.93;2.90;;;30.70;46.20;;;;;;5022647;28;20029;-57
2023/07/08 10:21:03;;;;;;;3.33;2.53;;;30.80;43.70;;;;;;5035293;28;20159;-58
2023/07/08 10:23:46;;;;;;;4.28;2.75;;;30.90;43.20;;;;;;5009431;28;20038;-57
2023/07/08 10:26:28;;;;;;;3.55;3.25;;;31.10;42.80;;;;;;5038301;28;20025;-57
2023/07/08 10:29:13;;;;;;;3.17;2.72;;;31.10;42.20;;;;;;5042091;28;20041;-58
2023/07/08 10:31:58;;;;;;;3.25;2.95;;;31.10;42.80;;;;;;5037279;28;20057;-55
2023/07/08 10:34:29;;;;;;;3.42;3.13;;;31.00;43.20;;;;;;5019347;28;20033;-54
2023/07/08 10:37:27;;;;;;;4.82;3.13;;;30.90;43.80;;;;;;5027408;28;20045;-54
2023/07/08 10:40:02;;;;;;;3.08;2.67;;;30.80;43.00;;;;;;5024760;28;20021;-57
2023/07/08 10:42:31;;;;;;;3.45;3.03;;;30.70;44.30;;;;;;5028938;28;20021;-53
2023/07/08 10:45:14;;;;;;;3.88;3.00;;;30.70;44.90;;;;;;5029750;28;20125;-58
2023/07/08 10:48:03;;;;;;;4.60;2.97;;;30.70;44.40;;;;;;5022007;28;20064;-58
2023/07/08 10:50:45;;;;;;;6.20;2.75;;;30.80;43.80;;;;;;5018337;28;20025;-57
2023/07/08 10:53:22;;;;;;;4.18;3.28;;;30.90;42.00;;;;;;5018269;28;20116;-57
2023/07/08 10:56:13;;;;;;;3.00;2.70;;;30.80;40.20;;;;;;5036823;28;20084;-57
2023/07/08 10:58:57;;;;;;;6.75;2.95;;;30.70;41.40;;;;;;5038561;28;20046;-56
2023/07/08 11:01:45;;;;;;;3.38;3.00;;;30.70;40.00;;;;;;5019389;28;20465;-57
2023/07/08 11:04:42;;;;;;;2.95;2.67;;;30.70;42.20;;;;;;5034769;28;20030;-55
2023/07/08 11:07:17;;;;;;;7.03;3.20;;;30.80;41.70;;;;;;5019603;28;20038;-55
2023/07/08 11:09:53;;;;;;;3.53;2.53;;;30.90;41.20;;;;;;5029030;28;20060;-56
2023/07/08 11:12:37;;;;;;;5.53;3.10;;;30.80;42.00;;;;;;5027415;28;20398;-55
2023/07/08 11:15:12;;;;;;;3.47;2.55;;;30.80;42.50;;;;;;5023108;28;20033;-55
2023/07/08 11:17:58;;;;;;;3.53;2.55;;;30.80;41.50;;;;;;5035011;28;20034;-56
2023/07/08 11:20:45;;;;;;;3.30;2.60;;;30.90;40.80;;;;;;5019881;28;20025;-57
2023/07/08 11:23:19;;;;;;;2.67;2.47;;;31.00;40.80;;;;;;5036053;28;20036;-56
2023/07/08 11:25:48;;;;;;;3.08;2.53;;;31.10;41.80;;;;;;5016203;28;20038;-56
2023/07/08 11:28:18;;;;;;;3.58;3.20;;;31.20;41.40;;;;;;5017857;28;20030;-53
2023/07/08 11:30:46;;;;;;;2.50;2.30;;;31.40;42.00;;;;;;5030702;28;20040;-55
2023/07/08 11:33:14;;;;;;;2.83;2.55;;;31.40;39.60;;;;;;5029107;28;20091;-56
2023/07/08 11:35:52;;;;;;;5.70;3.13;;;31.40;39.50;;;;;;5019774;28;21111;-55
2023/07/08 11:38:20;;;;;;;3.78;2.63;;;31.40;40.10;;;;;;5036126;28;20557;-57
2023/07/08 11:41:23;;;;;;;3.65;2.97;;;31.40;40.20;;;;;;5016887;28;20041;-55
2023/07/08 11:43:51;;;;;;;2.78;2.58;;;31.30;39.80;;;;;;5017425;28;20435;-56
2023/07/08 11:46:28;;;;;;;3.42;2.90;;;31.30;41.10;;;;;;5030809;28;20656;-54
2023/07/08 11:48:56;;;;;;;2.85;2.65;;;31.50;41.40;;;;;;5025726;28;20053;-57
2023/07/08 11:51:38;;;;;;;5.68;2.65;;;31.70;41.30;;;;;;5029916;28;20021;-55
2023/07/08 11:54:03;;;;;;;2.83;2.53;;;31.80;39.20;;;;;;5036921;28;20095;-55
2023/07/08 11:56:50;;;;;;;3.08;2.72;;;31.80;38.90;;;;;;5020814;28;20482;-55
2023/07/08 11:59:20;;;;;;;3.22;2.45;;;31.90;39.90;;;;;;5037889;28;20021;-56
2023/07/08 12:01:50;;;;;;;3.58;2.70;;;32.00;38.50;;;;;;5017456;28;20026;-56
2023/07/08 12:04:35;;;;;;;2.80;2.60;;;32.00;39.30;;;;;;5038152;28;20106;-53
2023/07/08 12:07:04;;;;;;;3.28;2.97;;;32.00;36.00;;;;;;5026892;28;20030;-55
2023/07/08 12:09:37;;;;;;;2.90;2.63;;;31.90;37.90;;;;;;5034375;28;20029;-55
2023/07/08 12:12:07;;;;;;;5.63;2.70;;;31.90;36.80;;;;;;5034697;28;20025;-56
2023/07/08 12:14:33;;;;;;;3.10;2.80;;;31.70;36.10;;;;;;5018161;28;20181;-56
2023/07/08 12:16:59;;;;;;;2.60;2.40;;;31.60;37.30;;;;;;5040431;28;20560;-56
2023/07/08 12:19:28;;;;;;;3.40;2.95;;;31.50;37.50;;;;;;5022272;28;20056;-58
2023/07/08 12:21:54;;;;;;;3.63;2.27;;;31.50;38.00;;;;;;5035893;28;20159;-58
2023/07/08 12:24:26;;;;;;;4.53;2.67;;;31.60;37.40;;;;;;5029603;28;20041;-58
2023/07/08 12:26:52;;;;;;;2.45;2.25;;;31.70;38.10;;;;;;5025196;28;20032;-58
2023/07/08 12:29:17;;;;;;;4.00;3.33;;;31.80;39.40;;;;;;5038901;28;20020;-57
2023/07/08 12:31:43;;;;;;;3.72;2.90;;;32.00;38.00;;;;;;5019547;28;20402;-57
2023/07/08 12:34:14;;;;;;;2.72;2.47;;;32.00;37.20;;;;;;5038003;28;20053;-58
2023/07/08 12:36:42;;;;;;;2.72;2.42;;;32.10;37.30;;;;;;5026775;28;20072;-58
2023/07/08 12:39:14;;;;;;;3.33;2.78;;;32.00;37.80;;;;;;5027123;28;20029;-58
2023/07/08 12:41:41;;;;;;;3.53;3.13;;;32.10;36.80;;;;;;5036628;28;20025;-54
2023/07/08 12:44:15;;;;;;;2.80;2.60;;;32.20;37.10;;;;;;5019251;28;20508;-55
2023/07/08 12:46:41;;;;;;;3.42;2.75;;;32.30;38.60;;;;;;5020488;28;20033;-57
2023/07/08 12:49:08;;;;;;;4.65;2.92;;;32.40;35.70;;;;;;5034637;28;20765;-55
2023/07/08 12:51:34;;;;;;;2.88;2.58;;;32.40;35.90;;;;;;5029308;28;20038;-55
2023/07/08 12:54:00;;;;;;;2.60;2.40;;;32.50;36.70;;;;;;5024125;28;20088;-57
2023/07/08 12:56:25;;;;;;;4.45;2.90;;;32.50;35.80;;;;;;5036496;28;20034;-57
2023/07/08 12:58:55;;;;;;;3.60;2.45;;;32.60;35.60;;;;;;5016175;28;20017;-58
2023/07/08 13:01:31;;;;;;;2.80;2.60;;;32.70;36.10;;;;;;5039455;28;20021;-58